Orange Park, Florida
Current Conditions -  °F | °C
As of 9:53 PM on Monday 20 Oct 2014 (Local Time) from KNIP Reporting Station
Broken Clouds Broken Clouds  
Wind Chill: 77°   Ceiling: 25000
Heat Index: 79°   Visibility: 10mi
Dew Point: 67°   Wind: 6mph
Humidity: 71%   Direction: 130°SE
Pressure: 29.99"   Gusts: NA
Location:  30.17°N, 81.7°W
Report Text: KNIP 210153Z 13005KT 10SM BKN250 25/19 A2999 RMK AO2 SLP151 T02500194
Loading
Personal Weather Stations






























Interactive Weather Map New forecast layout! Learn more

10-Day Weather Forecast

Advertisements
Track Severe Weather on mobile